Hauptseite
METAR-TAF:

METAR-TAF

Flughäfen :

London Southend Airport

London-Southend, England

Breite: 51-34N, Länge: 000-42E, Höhe: 15 m

Beobachtung

Neuester Wetterbericht von vor 33 Minuten, um 05:50 UTC
Wind 4 kt aus Nord, variierte zwischen Nordwest und Nordost
Temperatur 19°C
Luftfeuchtigkeit 94%
Luftdruck 1014 hPa
Sichtweite 10 km oder mehr
keine Wolken unter 1500 m und keine Kumulonimbus oder Gewitterwolken

METAR: EGMC 100550Z 36004KT 320V040 CAVOK 19/18 Q1014

Zeit: 07:23 (06:23 UTC)

Prognose

Neuester Wetterbericht von vor 1 Stunde und 21 Minuten, um 05:02 UTC
Gültige Prognose vom 10 um 06 UTC bis 10 um 15 UTC
Wind 8 kt aus Nord/Nordost
Sichtweite 10 km oder mehr
keine Wolken unter 1500 m und keine Kumulonimbus oder Gewitterwolken
Wahrscheinlichkeit 30% :
Zeitweise
vom 10 um 13 UTC bis 10 um 15 UTC
Sichtweite: 7000 m
Regenschauer

TAF: EGMC 100502Z 1006/1015 03008KT CAVOK PROB30 TEMPO 1013/1015 7000 SHRA

Wetterbeobachtungen und Prognosen von mehr als 4000 Flughäfen (METAR und TAF Bericht).

Die verfügbaren Stationen werden durch gelbe und rote Markierungen auf der Karte dargestellt.

Führen Sie die Maus auf sie, um den Namen der Station zu sehen.

Darauf klicken, um die Beobachtung von Wetterbeobachtungen und Prognosen zu sehen.

Um die Karte zu ändern : klicken Sie auf den grünen Tasten mit einem schwarzen Kreuz Zum Vergrößern, auf den grünen Button mit einem Gedankenstrich zu verkleinern, oder auf die grünen Pfeile für benachbarte Karten.


METAR-TAF: